sensor_id;sensor_type;location;lat;lon;timestamp;temperature;humidity
21602;DHT22;10963;50.934;4.668;2023-12-04T00:00:27;3.60;99.90
21602;DHT22;10963;50.934;4.668;2023-12-04T00:02:55;3.70;99.90
21602;DHT22;10963;50.934;4.668;2023-12-04T00:05:20;3.60;99.90
21602;DHT22;10963;50.934;4.668;2023-12-04T00:07:49;3.60;99.90
21602;DHT22;10963;50.934;4.668;2023-12-04T00:10:14;3.60;99.90
21602;DHT22;10963;50.934;4.668;2023-12-04T00:12:40;3.60;99.90
21602;DHT22;10963;50.934;4.668;2023-12-04T00:15:06;3.40;99.90
21602;DHT22;10963;50.934;4.668;2023-12-04T00:17:32;3.40;99.90
21602;DHT22;10963;50.934;4.668;2023-12-04T00:20:06;3.50;99.90
21602;DHT22;10963;50.934;4.668;2023-12-04T00:22:32;3.50;99.90
21602;DHT22;10963;50.934;4.668;2023-12-04T00:24:58;3.40;99.90
21602;DHT22;10963;50.934;4.668;2023-12-04T00:27:23;3.40;99.90
21602;DHT22;10963;50.934;4.668;2023-12-04T00:29:54;3.40;99.90
21602;DHT22;10963;50.934;4.668;2023-12-04T00:32:20;3.40;99.90
21602;DHT22;10963;50.934;4.668;2023-12-04T00:34:46;3.40;99.90
21602;DHT22;10963;50.934;4.668;2023-12-04T00:37:12;3.50;99.90
21602;DHT22;10963;50.934;4.668;2023-12-04T00:39:40;3.50;99.90
21602;DHT22;10963;50.934;4.668;2023-12-04T00:42:08;3.40;99.90
21602;DHT22;10963;50.934;4.668;2023-12-04T00:44:34;3.40;99.90
21602;DHT22;10963;50.934;4.668;2023-12-04T00:46:59;3.50;99.90
21602;DHT22;10963;50.934;4.668;2023-12-04T00:49:27;3.40;99.90
21602;DHT22;10963;50.934;4.668;2023-12-04T00:51:53;3.40;99.90
21602;DHT22;10963;50.934;4.668;2023-12-04T00:54:19;3.40;99.90
21602;DHT22;10963;50.934;4.668;2023-12-04T00:56:47;3.30;99.90
21602;DHT22;10963;50.934;4.668;2023-12-04T00:59:13;3.40;99.90
21602;DHT22;10963;50.934;4.668;2023-12-04T01:01:38;3.40;99.90
21602;DHT22;10963;50.934;4.668;2023-12-04T01:04:06;3.50;99.90
21602;DHT22;10963;50.934;4.668;2023-12-04T01:06:32;3.50;99.90
21602;DHT22;10963;50.934;4.668;2023-12-04T01:09:00;3.50;99.90
21602;DHT22;10963;50.934;4.668;2023-12-04T01:11:28;3.40;99.90
21602;DHT22;10963;50.934;4.668;2023-12-04T01:13:53;3.40;99.90
21602;DHT22;10963;50.934;4.668;2023-12-04T01:16:19;3.40;99.90
21602;DHT22;10963;50.934;4.668;2023-12-04T01:18:47;3.40;99.90
21602;DHT22;10963;50.934;4.668;2023-12-04T01:21:13;3.20;99.90
21602;DHT22;10963;50.934;4.668;2023-12-04T01:23:42;3.20;99.90
21602;DHT22;10963;50.934;4.668;2023-12-04T01:26:10;3.20;99.90
21602;DHT22;10963;50.934;4.668;2023-12-04T01:28:35;3.30;99.90
21602;DHT22;10963;50.934;4.668;2023-12-04T01:31:06;3.40;99.90
21602;DHT22;10963;50.934;4.668;2023-12-04T01:33:35;3.20;99.90
21602;DHT22;10963;50.934;4.668;2023-12-04T01:36:02;3.20;99.90
21602;DHT22;10963;50.934;4.668;2023-12-04T01:38:28;3.30;99.90
21602;DHT22;10963;50.934;4.668;2023-12-04T01:40:56;3.30;99.90
21602;DHT22;10963;50.934;4.668;2023-12-04T01:43:24;3.40;99.90
21602;DHT22;10963;50.934;4.668;2023-12-04T01:45:50;3.40;99.90
21602;DHT22;10963;50.934;4.668;2023-12-04T01:48:20;3.40;99.90
21602;DHT22;10963;50.934;4.668;2023-12-04T01:50:48;3.40;99.90
21602;DHT22;10963;50.934;4.668;2023-12-04T01:53:17;3.40;99.90
21602;DHT22;10963;50.934;4.668;2023-12-04T01:55:43;3.50;99.90
21602;DHT22;10963;50.934;4.668;2023-12-04T01:58:10;3.50;99.90
21602;DHT22;10963;50.934;4.668;2023-12-04T02:00:36;3.50;99.90
21602;DHT22;10963;50.934;4.668;2023-12-04T02:03:02;3.50;99.90
21602;DHT22;10963;50.934;4.668;2023-12-04T02:05:28;3.60;99.90
21602;DHT22;10963;50.934;4.668;2023-12-04T02:07:55;3.60;99.90
21602;DHT22;10963;50.934;4.668;2023-12-04T02:10:23;3.50;99.90
21602;DHT22;10963;50.934;4.668;2023-12-04T02:12:52;3.50;99.90
21602;DHT22;10963;50.934;4.668;2023-12-04T02:15:22;3.50;99.90
21602;DHT22;10963;50.934;4.668;2023-12-04T02:17:50;3.40;99.90
21602;DHT22;10963;50.934;4.668;2023-12-04T02:20:17;3.50;99.90
21602;DHT22;10963;50.934;4.668;2023-12-04T02:22:42;3.50;99.90
21602;DHT22;10963;50.934;4.668;2023-12-04T02:25:09;3.50;99.90
21602;DHT22;10963;50.934;4.668;2023-12-04T02:27:44;3.60;99.90
21602;DHT22;10963;50.934;4.668;2023-12-04T02:30:12;3.50;99.90
21602;DHT22;10963;50.934;4.668;2023-12-04T02:32:44;3.30;99.90
21602;DHT22;10963;50.934;4.668;2023-12-04T02:35:11;3.40;99.90
21602;DHT22;10963;50.934;4.668;2023-12-04T02:37:39;3.50;99.90
21602;DHT22;10963;50.934;4.668;2023-12-04T02:40:10;3.50;99.90
21602;DHT22;10963;50.934;4.668;2023-12-04T02:42:36;3.50;99.90
21602;DHT22;10963;50.934;4.668;2023-12-04T02:45:07;3.50;99.90
21602;DHT22;10963;50.934;4.668;2023-12-04T02:47:33;3.50;99.90
21602;DHT22;10963;50.934;4.668;2023-12-04T02:49:59;3.40;99.90
21602;DHT22;10963;50.934;4.668;2023-12-04T02:52:27;3.40;99.90
21602;DHT22;10963;50.934;4.668;2023-12-04T02:54:53;3.40;99.90
21602;DHT22;10963;50.934;4.668;2023-12-04T02:57:18;3.50;99.90
21602;DHT22;10963;50.934;4.668;2023-12-04T02:59:44;3.50;99.90
21602;DHT22;10963;50.934;4.668;2023-12-04T03:02:10;3.50;99.90
21602;DHT22;10963;50.934;4.668;2023-12-04T03:04:35;3.50;99.90
21602;DHT22;10963;50.934;4.668;2023-12-04T03:07:05;3.40;99.90
21602;DHT22;10963;50.934;4.668;2023-12-04T03:09:31;3.50;99.90
21602;DHT22;10963;50.934;4.668;2023-12-04T03:11:57;3.60;99.90
21602;DHT22;10963;50.934;4.668;2023-12-04T03:14:22;3.50;99.90
21602;DHT22;10963;50.934;4.668;2023-12-04T03:16:49;3.50;99.90
21602;DHT22;10963;50.934;4.668;2023-12-04T03:19:17;3.40;99.90
21602;DHT22;10963;50.934;4.668;2023-12-04T03:21:43;3.40;99.90
21602;DHT22;10963;50.934;4.668;2023-12-04T03:24:08;3.40;99.90
21602;DHT22;10963;50.934;4.668;2023-12-04T03:26:36;3.40;99.90
21602;DHT22;10963;50.934;4.668;2023-12-04T03:29:07;3.40;99.90
21602;DHT22;10963;50.934;4.668;2023-12-04T03:31:33;3.40;99.90
21602;DHT22;10963;50.934;4.668;2023-12-04T03:33:59;3.40;99.90
21602;DHT22;10963;50.934;4.668;2023-12-04T03:36:25;3.50;99.90
21602;DHT22;10963;50.934;4.668;2023-12-04T03:38:51;3.40;99.90
21602;DHT22;10963;50.934;4.668;2023-12-04T03:41:19;3.50;99.90
21602;DHT22;10963;50.934;4.668;2023-12-04T03:43:45;3.40;99.90
21602;DHT22;10963;50.934;4.668;2023-12-04T03:46:10;3.50;99.90
21602;DHT22;10963;50.934;4.668;2023-12-04T03:48:36;3.50;99.90
21602;DHT22;10963;50.934;4.668;2023-12-04T03:51:02;3.60;99.90
21602;DHT22;10963;50.934;4.668;2023-12-04T03:53:30;3.60;99.90
21602;DHT22;10963;50.934;4.668;2023-12-04T03:55:58;3.60;99.90
21602;DHT22;10963;50.934;4.668;2023-12-04T03:58:24;3.60;99.90
21602;DHT22;10963;50.934;4.668;2023-12-04T04:00:49;3.60;99.90
21602;DHT22;10963;50.934;4.668;2023-12-04T04:03:20;3.60;99.90
21602;DHT22;10963;50.934;4.668;2023-12-04T04:05:45;3.60;99.90
21602;DHT22;10963;50.934;4.668;2023-12-04T04:08:11;3.50;99.90
21602;DHT22;10963;50.934;4.668;2023-12-04T04:10:39;3.60;99.90
21602;DHT22;10963;50.934;4.668;2023-12-04T04:13:04;3.60;99.90
21602;DHT22;10963;50.934;4.668;2023-12-04T04:15:30;3.50;99.90
21602;DHT22;10963;50.934;4.668;2023-12-04T04:17:56;3.50;99.90
21602;DHT22;10963;50.934;4.668;2023-12-04T04:20:23;3.50;99.90
21602;DHT22;10963;50.934;4.668;2023-12-04T04:22:51;3.50;99.90
21602;DHT22;10963;50.934;4.668;2023-12-04T04:25:17;3.60;99.90
21602;DHT22;10963;50.934;4.668;2023-12-04T04:27:44;3.70;99.90
21602;DHT22;10963;50.934;4.668;2023-12-04T04:30:12;3.70;99.90
21602;DHT22;10963;50.934;4.668;2023-12-04T04:32:43;3.70;99.90
21602;DHT22;10963;50.934;4.668;2023-12-04T04:35:12;3.80;99.90
21602;DHT22;10963;50.934;4.668;2023-12-04T04:37:39;3.80;99.90
21602;DHT22;10963;50.934;4.668;2023-12-04T04:40:06;3.70;99.90
21602;DHT22;10963;50.934;4.668;2023-12-04T04:42:31;3.70;99.90
21602;DHT22;10963;50.934;4.668;2023-12-04T04:44:58;3.70;99.90
21602;DHT22;10963;50.934;4.668;2023-12-04T04:47:26;3.60;99.90
21602;DHT22;10963;50.934;4.668;2023-12-04T04:49:51;3.60;99.90
21602;DHT22;10963;50.934;4.668;2023-12-04T04:52:17;3.50;99.90
21602;DHT22;10963;50.934;4.668;2023-12-04T04:54:43;3.60;99.90
21602;DHT22;10963;50.934;4.668;2023-12-04T04:57:09;3.60;99.90
21602;DHT22;10963;50.934;4.668;2023-12-04T04:59:34;3.60;99.90
21602;DHT22;10963;50.934;4.668;2023-12-04T05:02:00;3.70;99.90
21602;DHT22;10963;50.934;4.668;2023-12-04T05:04:26;3.70;99.90
21602;DHT22;10963;50.934;4.668;2023-12-04T05:06:51;3.80;99.90
21602;DHT22;10963;50.934;4.668;2023-12-04T05:09:19;3.70;99.90
21602;DHT22;10963;50.934;4.668;2023-12-04T05:11:47;3.70;99.90
21602;DHT22;10963;50.934;4.668;2023-12-04T05:14:13;3.70;99.90
21602;DHT22;10963;50.934;4.668;2023-12-04T05:16:41;3.70;99.90
21602;DHT22;10963;50.934;4.668;2023-12-04T05:19:07;3.80;99.90
21602;DHT22;10963;50.934;4.668;2023-12-04T05:21:35;3.80;99.90
21602;DHT22;10963;50.934;4.668;2023-12-04T05:24:05;3.90;99.90
21602;DHT22;10963;50.934;4.668;2023-12-04T05:26:31;3.90;99.90
21602;DHT22;10963;50.934;4.668;2023-12-04T05:28:56;3.90;99.90
21602;DHT22;10963;50.934;4.668;2023-12-04T05:31:22;3.90;99.90
21602;DHT22;10963;50.934;4.668;2023-12-04T05:33:48;3.90;99.90
21602;DHT22;10963;50.934;4.668;2023-12-04T05:36:17;3.80;99.90
21602;DHT22;10963;50.934;4.668;2023-12-04T05:38:43;3.80;99.90
21602;DHT22;10963;50.934;4.668;2023-12-04T05:41:12;3.80;99.90
21602;DHT22;10963;50.934;4.668;2023-12-04T05:43:38;3.80;99.90
21602;DHT22;10963;50.934;4.668;2023-12-04T05:46:04;3.70;99.90
21602;DHT22;10963;50.934;4.668;2023-12-04T05:48:29;3.70;99.90
21602;DHT22;10963;50.934;4.668;2023-12-04T05:50:55;3.70;99.90
21602;DHT22;10963;50.934;4.668;2023-12-04T05:53:23;3.70;99.90
21602;DHT22;10963;50.934;4.668;2023-12-04T05:55:51;3.70;99.90
21602;DHT22;10963;50.934;4.668;2023-12-04T05:58:17;3.70;99.90
21602;DHT22;10963;50.934;4.668;2023-12-04T06:00:43;3.70;99.90
21602;DHT22;10963;50.934;4.668;2023-12-04T06:03:09;3.80;99.90
21602;DHT22;10963;50.934;4.668;2023-12-04T06:05:34;3.80;99.90
21602;DHT22;10963;50.934;4.668;2023-12-04T06:08:02;3.80;99.90
21602;DHT22;10963;50.934;4.668;2023-12-04T06:10:33;3.80;99.90
21602;DHT22;10963;50.934;4.668;2023-12-04T06:13:05;3.80;99.90
21602;DHT22;10963;50.934;4.668;2023-12-04T06:15:33;3.90;99.90
21602;DHT22;10963;50.934;4.668;2023-12-04T06:17:59;3.90;99.90
21602;DHT22;10963;50.934;4.668;2023-12-04T06:20:30;4.00;99.90
21602;DHT22;10963;50.934;4.668;2023-12-04T06:22:56;3.90;99.90
21602;DHT22;10963;50.934;4.668;2023-12-04T06:25:27;3.90;99.90
21602;DHT22;10963;50.934;4.668;2023-12-04T06:27:53;3.90;99.90
21602;DHT22;10963;50.934;4.668;2023-12-04T06:30:21;3.90;99.90
21602;DHT22;10963;50.934;4.668;2023-12-04T06:32:47;4.00;99.90
21602;DHT22;10963;50.934;4.668;2023-12-04T06:35:16;4.00;99.90
21602;DHT22;10963;50.934;4.668;2023-12-04T06:37:43;3.90;99.90
21602;DHT22;10963;50.934;4.668;2023-12-04T06:40:09;3.80;99.90
21602;DHT22;10963;50.934;4.668;2023-12-04T06:42:37;3.80;99.90
21602;DHT22;10963;50.934;4.668;2023-12-04T06:45:05;3.70;99.90
21602;DHT22;10963;50.934;4.668;2023-12-04T06:47:33;3.70;99.90
21602;DHT22;10963;50.934;4.668;2023-12-04T06:49:59;3.70;99.90
21602;DHT22;10963;50.934;4.668;2023-12-04T06:52:27;3.60;99.90
21602;DHT22;10963;50.934;4.668;2023-12-04T06:54:53;3.70;99.90
21602;DHT22;10963;50.934;4.668;2023-12-04T06:57:18;3.70;99.90
21602;DHT22;10963;50.934;4.668;2023-12-04T06:59:47;3.80;99.90
21602;DHT22;10963;50.934;4.668;2023-12-04T07:02:12;3.80;99.90
21602;DHT22;10963;50.934;4.668;2023-12-04T07:04:40;3.80;99.90
21602;DHT22;10963;50.934;4.668;2023-12-04T07:07:08;3.80;99.90
21602;DHT22;10963;50.934;4.668;2023-12-04T07:09:37;3.80;99.90
21602;DHT22;10963;50.934;4.668;2023-12-04T07:12:05;3.80;99.90
21602;DHT22;10963;50.934;4.668;2023-12-04T07:14:31;3.80;99.90
21602;DHT22;10963;50.934;4.668;2023-12-04T07:17:01;3.90;99.90
21602;DHT22;10963;50.934;4.668;2023-12-04T07:19:29;3.90;99.90
21602;DHT22;10963;50.934;4.668;2023-12-04T07:21:56;4.00;99.90
21602;DHT22;10963;50.934;4.668;2023-12-04T07:24:23;3.90;99.90
21602;DHT22;10963;50.934;4.668;2023-12-04T07:26:48;3.90;99.90
21602;DHT22;10963;50.934;4.668;2023-12-04T07:29:14;3.80;99.90
21602;DHT22;10963;50.934;4.668;2023-12-04T07:31:42;3.80;99.90
21602;DHT22;10963;50.934;4.668;2023-12-04T07:34:11;3.80;99.90
21602;DHT22;10963;50.934;4.668;2023-12-04T07:36:44;3.80;99.90
21602;DHT22;10963;50.934;4.668;2023-12-04T07:39:13;3.90;99.90
21602;DHT22;10963;50.934;4.668;2023-12-04T07:41:39;3.90;99.90
21602;DHT22;10963;50.934;4.668;2023-12-04T07:44:07;3.90;99.90
21602;DHT22;10963;50.934;4.668;2023-12-04T07:46:36;4.00;99.90
21602;DHT22;10963;50.934;4.668;2023-12-04T07:49:01;4.00;99.90
21602;DHT22;10963;50.934;4.668;2023-12-04T07:51:29;4.10;99.90
21602;DHT22;10963;50.934;4.668;2023-12-04T07:53:57;4.10;99.90
21602;DHT22;10963;50.934;4.668;2023-12-04T07:56:23;4.10;99.90
21602;DHT22;10963;50.934;4.668;2023-12-04T07:58:51;4.00;99.90
21602;DHT22;10963;50.934;4.668;2023-12-04T08:01:19;3.90;99.90
21602;DHT22;10963;50.934;4.668;2023-12-04T08:03:47;3.90;99.90
21602;DHT22;10963;50.934;4.668;2023-12-04T08:06:12;3.90;99.90
21602;DHT22;10963;50.934;4.668;2023-12-04T08:08:38;3.90;99.90
21602;DHT22;10963;50.934;4.668;2023-12-04T08:11:04;3.80;99.90
21602;DHT22;10963;50.934;4.668;2023-12-04T08:13:30;3.80;99.90
21602;DHT22;10963;50.934;4.668;2023-12-04T08:15:56;3.90;99.90
21602;DHT22;10963;50.934;4.668;2023-12-04T08:18:24;4.00;99.90
21602;DHT22;10963;50.934;4.668;2023-12-04T08:20:50;4.00;99.90
21602;DHT22;10963;50.934;4.668;2023-12-04T08:23:15;4.10;99.90
21602;DHT22;10963;50.934;4.668;2023-12-04T08:25:41;4.10;99.90
21602;DHT22;10963;50.934;4.668;2023-12-04T08:28:09;4.00;99.90
21602;DHT22;10963;50.934;4.668;2023-12-04T08:30:35;4.00;99.90
21602;DHT22;10963;50.934;4.668;2023-12-04T08:33:01;4.00;99.90
21602;DHT22;10963;50.934;4.668;2023-12-04T08:35:27;4.10;99.90
21602;DHT22;10963;50.934;4.668;2023-12-04T08:37:55;4.20;99.90
21602;DHT22;10963;50.934;4.668;2023-12-04T08:40:20;4.20;99.90
21602;DHT22;10963;50.934;4.668;2023-12-04T08:42:49;4.20;99.90
21602;DHT22;10963;50.934;4.668;2023-12-04T08:45:17;4.20;99.90
21602;DHT22;10963;50.934;4.668;2023-12-04T08:47:45;4.20;99.90
21602;DHT22;10963;50.934;4.668;2023-12-04T08:50:11;4.20;99.90
21602;DHT22;10963;50.934;4.668;2023-12-04T08:52:37;4.20;99.90
21602;DHT22;10963;50.934;4.668;2023-12-04T08:55:07;4.20;99.90
21602;DHT22;10963;50.934;4.668;2023-12-04T08:57:38;4.20;99.90
21602;DHT22;10963;50.934;4.668;2023-12-04T09:00:04;4.20;99.90
21602;DHT22;10963;50.934;4.668;2023-12-04T09:02:32;4.30;99.90
21602;DHT22;10963;50.934;4.668;2023-12-04T09:04:58;4.30;99.90
21602;DHT22;10963;50.934;4.668;2023-12-04T09:07:24;4.30;99.90
21602;DHT22;10963;50.934;4.668;2023-12-04T09:09:50;4.30;99.90
21602;DHT22;10963;50.934;4.668;2023-12-04T09:12:18;4.30;99.90
21602;DHT22;10963;50.934;4.668;2023-12-04T09:14:43;4.30;99.90
21602;DHT22;10963;50.934;4.668;2023-12-04T09:17:10;4.30;99.90
21602;DHT22;10963;50.934;4.668;2023-12-04T09:19:36;4.20;99.90
21602;DHT22;10963;50.934;4.668;2023-12-04T09:22:04;4.10;99.90
21602;DHT22;10963;50.934;4.668;2023-12-04T09:24:32;4.00;99.90
21602;DHT22;10963;50.934;4.668;2023-12-04T09:26:58;3.90;99.90
21602;DHT22;10963;50.934;4.668;2023-12-04T09:29:25;3.90;99.90
21602;DHT22;10963;50.934;4.668;2023-12-04T09:31:54;3.80;99.90
21602;DHT22;10963;50.934;4.668;2023-12-04T09:34:19;3.90;99.90
21602;DHT22;10963;50.934;4.668;2023-12-04T09:36:46;3.80;99.90
21602;DHT22;10963;50.934;4.668;2023-12-04T09:39:13;3.80;99.90
21602;DHT22;10963;50.934;4.668;2023-12-04T09:41:42;3.90;99.90
21602;DHT22;10963;50.934;4.668;2023-12-04T09:44:10;3.90;99.90
21602;DHT22;10963;50.934;4.668;2023-12-04T09:46:36;4.00;99.90
21602;DHT22;10963;50.934;4.668;2023-12-04T09:49:05;4.00;99.90
21602;DHT22;10963;50.934;4.668;2023-12-04T09:51:34;3.90;99.90
21602;DHT22;10963;50.934;4.668;2023-12-04T09:54:02;3.90;99.90
21602;DHT22;10963;50.934;4.668;2023-12-04T09:56:35;3.80;99.90
21602;DHT22;10963;50.934;4.668;2023-12-04T09:59:05;3.80;99.90
21602;DHT22;10963;50.934;4.668;2023-12-04T10:01:32;3.80;99.90
21602;DHT22;10963;50.934;4.668;2023-12-04T10:03:58;3.70;99.90
21602;DHT22;10963;50.934;4.668;2023-12-04T10:06:27;3.80;99.90
21602;DHT22;10963;50.934;4.668;2023-12-04T10:08:55;3.80;99.90
21602;DHT22;10963;50.934;4.668;2023-12-04T10:11:25;3.90;99.90
21602;DHT22;10963;50.934;4.668;2023-12-04T10:13:52;3.90;99.90
21602;DHT22;10963;50.934;4.668;2023-12-04T10:16:35;3.90;99.90
21602;DHT22;10963;50.934;4.668;2023-12-04T10:19:23;4.00;99.90
21602;DHT22;10963;50.934;4.668;2023-12-04T10:21:51;3.80;99.90
21602;DHT22;10963;50.934;4.668;2023-12-04T10:24:38;3.70;99.90
21602;DHT22;10963;50.934;4.668;2023-12-04T10:27:11;3.70;99.90
21602;DHT22;10963;50.934;4.668;2023-12-04T10:29:48;3.70;99.90
21602;DHT22;10963;50.934;4.668;2023-12-04T10:32:21;3.70;99.90
21602;DHT22;10963;50.934;4.668;2023-12-04T10:34:49;3.60;99.90
21602;DHT22;10963;50.934;4.668;2023-12-04T10:37:17;3.60;99.90
21602;DHT22;10963;50.934;4.668;2023-12-04T10:39:47;3.70;99.90
21602;DHT22;10963;50.934;4.668;2023-12-04T10:42:26;3.70;99.90
21602;DHT22;10963;50.934;4.668;2023-12-04T10:44:55;3.70;99.90
21602;DHT22;10963;50.934;4.668;2023-12-04T10:47:24;3.80;99.90
21602;DHT22;10963;50.934;4.668;2023-12-04T10:49:51;3.90;99.90
21602;DHT22;10963;50.934;4.668;2023-12-04T10:52:19;4.00;99.90
21602;DHT22;10963;50.934;4.668;2023-12-04T10:54:48;4.20;99.90
21602;DHT22;10963;50.934;4.668;2023-12-04T10:57:27;4.20;99.90
21602;DHT22;10963;50.934;4.668;2023-12-04T10:59:58;4.10;99.90
21602;DHT22;10963;50.934;4.668;2023-12-04T11:02:29;4.10;99.90
21602;DHT22;10963;50.934;4.668;2023-12-04T11:05:08;3.80;99.90
21602;DHT22;10963;50.934;4.668;2023-12-04T11:07:41;3.80;99.90
21602;DHT22;10963;50.934;4.668;2023-12-04T11:10:11;3.60;99.90
21602;DHT22;10963;50.934;4.668;2023-12-04T11:12:44;3.70;99.90
21602;DHT22;10963;50.934;4.668;2023-12-04T11:15:17;3.70;99.90
21602;DHT22;10963;50.934;4.668;2023-12-04T11:17:47;3.70;99.90
21602;DHT22;10963;50.934;4.668;2023-12-04T11:20:21;3.60;99.90
21602;DHT22;10963;50.934;4.668;2023-12-04T11:22:49;3.60;99.90
21602;DHT22;10963;50.934;4.668;2023-12-04T11:25:15;3.60;99.90
21602;DHT22;10963;50.934;4.668;2023-12-04T11:27:44;3.80;99.90
21602;DHT22;10963;50.934;4.668;2023-12-04T11:30:10;3.80;99.90
21602;DHT22;10963;50.934;4.668;2023-12-04T11:32:48;3.80;99.90
21602;DHT22;10963;50.934;4.668;2023-12-04T11:35:18;3.90;99.90
21602;DHT22;10963;50.934;4.668;2023-12-04T11:37:49;4.00;99.90
21602;DHT22;10963;50.934;4.668;2023-12-04T11:40:16;4.00;99.90
21602;DHT22;10963;50.934;4.668;2023-12-04T11:42:44;4.10;99.90
21602;DHT22;10963;50.934;4.668;2023-12-04T11:45:11;4.10;99.90
21602;DHT22;10963;50.934;4.668;2023-12-04T11:47:55;4.00;99.90
21602;DHT22;10963;50.934;4.668;2023-12-04T11:50:24;3.80;99.90
21602;DHT22;10963;50.934;4.668;2023-12-04T11:52:51;3.90;99.90
21602;DHT22;10963;50.934;4.668;2023-12-04T11:55:25;4.00;99.90
21602;DHT22;10963;50.934;4.668;2023-12-04T11:57:52;3.90;99.90
21602;DHT22;10963;50.934;4.668;2023-12-04T12:00:20;3.80;99.90
21602;DHT22;10963;50.934;4.668;2023-12-04T12:05:19;3.90;99.90
21602;DHT22;10963;50.934;4.668;2023-12-04T12:07:48;3.80;99.90
21602;DHT22;10963;50.934;4.668;2023-12-04T12:10:15;3.80;99.90
21602;DHT22;10963;50.934;4.668;2023-12-04T12:12:44;3.80;99.90
21602;DHT22;10963;50.934;4.668;2023-12-04T12:15:13;3.90;99.90
21602;DHT22;10963;50.934;4.668;2023-12-04T12:17:44;4.00;99.90
21602;DHT22;10963;50.934;4.668;2023-12-04T12:20:14;4.10;99.90
21602;DHT22;10963;50.934;4.668;2023-12-04T12:22:40;4.20;99.90
21602;DHT22;10963;50.934;4.668;2023-12-04T12:25:10;4.30;99.90
21602;DHT22;10963;50.934;4.668;2023-12-04T12:27:36;4.30;99.90
21602;DHT22;10963;50.934;4.668;2023-12-04T12:30:03;4.20;99.90
21602;DHT22;10963;50.934;4.668;2023-12-04T12:32:36;4.20;99.90
21602;DHT22;10963;50.934;4.668;2023-12-04T12:35:02;4.10;99.90
21602;DHT22;10963;50.934;4.668;2023-12-04T12:37:29;4.10;99.90
21602;DHT22;10963;50.934;4.668;2023-12-04T12:39:56;4.20;99.90
21602;DHT22;10963;50.934;4.668;2023-12-04T12:42:24;4.30;99.90
21602;DHT22;10963;50.934;4.668;2023-12-04T12:44:50;4.40;99.90
21602;DHT22;10963;50.934;4.668;2023-12-04T12:47:16;4.40;99.90
21602;DHT22;10963;50.934;4.668;2023-12-04T12:49:45;4.60;99.90
21602;DHT22;10963;50.934;4.668;2023-12-04T12:52:14;4.60;99.90
21602;DHT22;10963;50.934;4.668;2023-12-04T12:54:43;4.60;99.90
21602;DHT22;10963;50.934;4.668;2023-12-04T12:57:14;4.50;99.90
21602;DHT22;10963;50.934;4.668;2023-12-04T12:59:40;4.60;99.90
21602;DHT22;10963;50.934;4.668;2023-12-04T13:02:08;4.50;99.90
21602;DHT22;10963;50.934;4.668;2023-12-04T13:04:43;4.60;99.90
21602;DHT22;10963;50.934;4.668;2023-12-04T13:07:09;4.50;99.90
21602;DHT22;10963;50.934;4.668;2023-12-04T13:09:36;4.60;99.90
21602;DHT22;10963;50.934;4.668;2023-12-04T13:12:03;4.50;99.90
21602;DHT22;10963;50.934;4.668;2023-12-04T13:14:30;4.50;99.90
21602;DHT22;10963;50.934;4.668;2023-12-04T13:16:56;4.50;99.90
21602;DHT22;10963;50.934;4.668;2023-12-04T13:19:24;4.50;99.90
21602;DHT22;10963;50.934;4.668;2023-12-04T13:21:50;4.60;99.90
21602;DHT22;10963;50.934;4.668;2023-12-04T13:24:21;4.60;99.90
21602;DHT22;10963;50.934;4.668;2023-12-04T13:26:47;4.60;99.90
21602;DHT22;10963;50.934;4.668;2023-12-04T13:29:12;4.80;99.90
21602;DHT22;10963;50.934;4.668;2023-12-04T13:31:42;4.70;99.90
21602;DHT22;10963;50.934;4.668;2023-12-04T13:34:14;4.80;99.90
21602;DHT22;10963;50.934;4.668;2023-12-04T13:36:42;4.70;99.90
21602;DHT22;10963;50.934;4.668;2023-12-04T13:39:08;4.70;99.90
21602;DHT22;10963;50.934;4.668;2023-12-04T13:41:48;4.80;99.90
21602;DHT22;10963;50.934;4.668;2023-12-04T13:44:32;4.80;99.90
21602;DHT22;10963;50.934;4.668;2023-12-04T13:46:59;4.80;99.90
21602;DHT22;10963;50.934;4.668;2023-12-04T13:49:24;4.70;99.90
21602;DHT22;10963;50.934;4.668;2023-12-04T13:51:50;4.80;99.90
21602;DHT22;10963;50.934;4.668;2023-12-04T13:54:20;4.80;99.90
21602;DHT22;10963;50.934;4.668;2023-12-04T13:57:02;4.80;99.90
21602;DHT22;10963;50.934;4.668;2023-12-04T13:59:29;4.80;99.90
21602;DHT22;10963;50.934;4.668;2023-12-04T14:01:59;4.80;99.90
21602;DHT22;10963;50.934;4.668;2023-12-04T14:04:32;4.80;99.90
21602;DHT22;10963;50.934;4.668;2023-12-04T14:06:59;4.90;99.90
21602;DHT22;10963;50.934;4.668;2023-12-04T14:09:24;4.80;99.90
21602;DHT22;10963;50.934;4.668;2023-12-04T14:11:50;4.80;99.90
21602;DHT22;10963;50.934;4.668;2023-12-04T14:14:18;4.90;99.90
21602;DHT22;10963;50.934;4.668;2023-12-04T14:16:44;4.90;99.90
21602;DHT22;10963;50.934;4.668;2023-12-04T14:19:11;4.90;99.90
21602;DHT22;10963;50.934;4.668;2023-12-04T14:21:39;4.90;99.90
21602;DHT22;10963;50.934;4.668;2023-12-04T14:24:07;4.80;99.90
21602;DHT22;10963;50.934;4.668;2023-12-04T14:26:33;4.80;99.90
21602;DHT22;10963;50.934;4.668;2023-12-04T14:28:59;4.80;99.90
21602;DHT22;10963;50.934;4.668;2023-12-04T14:31:28;4.80;99.90
21602;DHT22;10963;50.934;4.668;2023-12-04T14:33:55;4.90;99.90
21602;DHT22;10963;50.934;4.668;2023-12-04T14:36:21;4.80;99.90
21602;DHT22;10963;50.934;4.668;2023-12-04T14:38:46;4.80;99.90
21602;DHT22;10963;50.934;4.668;2023-12-04T14:41:12;4.80;99.90
21602;DHT22;10963;50.934;4.668;2023-12-04T14:43:40;4.80;99.90
21602;DHT22;10963;50.934;4.668;2023-12-04T14:46:08;4.80;99.90
21602;DHT22;10963;50.934;4.668;2023-12-04T14:48:39;4.90;99.90
21602;DHT22;10963;50.934;4.668;2023-12-04T14:51:10;4.90;99.90
21602;DHT22;10963;50.934;4.668;2023-12-04T14:53:39;4.90;99.90
21602;DHT22;10963;50.934;4.668;2023-12-04T14:56:37;4.80;99.90
21602;DHT22;10963;50.934;4.668;2023-12-04T14:59:03;4.80;99.90
21602;DHT22;10963;50.934;4.668;2023-12-04T15:01:31;4.80;99.90
21602;DHT22;10963;50.934;4.668;2023-12-04T15:04:16;4.90;99.90
21602;DHT22;10963;50.934;4.668;2023-12-04T15:06:41;4.90;99.90
21602;DHT22;10963;50.934;4.668;2023-12-04T15:09:07;4.90;99.90
21602;DHT22;10963;50.934;4.668;2023-12-04T15:12:01;4.90;99.90
21602;DHT22;10963;50.934;4.668;2023-12-04T15:14:50;4.90;99.90
21602;DHT22;10963;50.934;4.668;2023-12-04T15:17:37;5.00;99.90
21602;DHT22;10963;50.934;4.668;2023-12-04T15:20:24;5.00;99.90
21602;DHT22;10963;50.934;4.668;2023-12-04T15:22:52;4.90;99.90
21602;DHT22;10963;50.934;4.668;2023-12-04T15:25:18;5.00;99.90
21602;DHT22;10963;50.934;4.668;2023-12-04T15:27:46;5.10;99.90
21602;DHT22;10963;50.934;4.668;2023-12-04T15:30:16;5.10;99.90
21602;DHT22;10963;50.934;4.668;2023-12-04T15:32:42;5.20;99.90
21602;DHT22;10963;50.934;4.668;2023-12-04T15:35:08;5.20;99.90
21602;DHT22;10963;50.934;4.668;2023-12-04T15:37:35;5.10;99.90
21602;DHT22;10963;50.934;4.668;2023-12-04T15:40:01;5.00;99.90
21602;DHT22;10963;50.934;4.668;2023-12-04T15:42:30;5.00;99.90
21602;DHT22;10963;50.934;4.668;2023-12-04T15:44:56;5.00;99.90
21602;DHT22;10963;50.934;4.668;2023-12-04T15:47:22;5.00;99.90
21602;DHT22;10963;50.934;4.668;2023-12-04T15:49:48;4.90;99.90
21602;DHT22;10963;50.934;4.668;2023-12-04T15:52:14;5.00;99.90